Aérodrome :
LOGIN :

S'inscrire | Disclaimer

   EN    FR    IT 

 










Légende :    VFR   VFR Marginal   IFR   IFR Intensif   IFR Très Intensif
Visi : 
Plafond : 
>= 8 km
>= 3000ft
5 à 8 km
1000 à 3000 ft
1500m à 5 km
500 à 1000 ft
800 à 1500m
200 à 500 ft
< 800m
< 200 ft
Symboles :   Orages  Brouillard  Fortes neiges  Fortes précipitations  Vent > 20 kt
SIGMETs :   Divers  Orages  Givrage  Turbulence  Onde Orograph.  Cendres Volcan.






- Altitude de l'aérodrome : 322 ft


LHSN - Szolnok

DERNIER METAR :
  • 150845Z 18006KT 150V210 CAVOK 18/11 Q1017 NOSIG RMK BLU

METARs EXPIRÉS :
  • 150815Z 17004KT CAVOK 18/11 Q1017 NOSIG RMK BLU
  • 150745Z 14004KT CAVOK 16/11 Q1017 NOSIG RMK BLU
  • 150715Z 11002KT 6000 NSC 14/11 Q1017 NOSIG RMK WHT
  • 150645Z 11002KT 5000 BR NSC 12/10 Q1017 BECMG 8000 NSW RMK WHT
  • 150615Z 10002KT 3000 BR FEW200 10/09 Q1017 BECMG 6000 NSW RMK YLO

TAF TAF LHSN
Valide du 15 à 09h jusqu'au 15 à 18h UTC


150815Z 1509/1518 17005KT CAVOK



MET'MAP, la Météo Aéronautique d'un coup d'oeil ! - Copyright ORBIFLY Décembre 2007 - Disclaimer

ORBIFLY MET'MAP TEAM :

Programmation & Développement : Alexandra Zaïnal
Conception & Développement : Baudouin d'Aumeries
Co-Programmation & Développement : Marc-Olivier Méhu
Soutien technique & logistique : Manuel Goepfert

Contact : metmap@orbifly.com




SOURCES & CREDITS :

   NOAA